Time;durP1;ratioP1;P1;durP2;ratioP2;P2;SDS_P1;SDS_P2;PMS_P1;PMS_P2;Temp;Humidity;BMP_temperature;BMP_pressure;BME280_temperature;BME280_humidity;BME280_pressure;Samples;Min_cycle;Max_cycle;Signal;HPM_P1;HPM_P2
2022/11/06 00:00:33;;;;;;;25.23;12.48;;;;;;;7.70;73.92;98863.25;5069671;28;20106;-68
2022/11/06 00:03:00;;;;;;;32.28;12.68;;;;;;;7.68;74.18;98865.44;5067920;28;20031;-69
2022/11/06 00:08:10;;;;;;;21.25;11.65;;;;;;;7.64;74.65;98867.06;5066885;28;20051;-69
2022/11/06 00:10:36;;;;;;;24.33;11.52;;;;;;;7.62;74.64;98868.44;5066636;28;20901;-70
2022/11/06 00:13:02;;;;;;;25.38;12.57;;;;;;;7.60;74.69;98872.25;5069092;28;20526;-69
2022/11/06 00:15:27;;;;;;;22.33;11.93;;;;;;;7.59;74.43;98870.59;5051999;28;20031;-69
2022/11/06 00:17:53;;;;;;;23.10;11.20;;;;;;;7.59;74.84;98873.31;5069836;28;20556;-70
2022/11/06 00:20:18;;;;;;;22.77;12.48;;;;;;;7.57;75.03;98870.03;5069502;28;20029;-68
2022/11/06 00:22:44;;;;;;;22.50;12.30;;;;;;;7.57;74.96;98870.03;5069968;28;20025;-69
2022/11/06 00:25:10;;;;;;;26.23;13.82;;;;;;;7.56;74.71;98862.94;5067773;28;20385;-69
2022/11/06 00:27:37;;;;;;;29.55;15.23;;;;;;;7.56;75.06;98870.28;5068701;28;20048;-69
2022/11/06 00:30:07;;;;;;;35.40;15.82;;;;;;;7.56;74.69;98871.13;5068995;28;20028;-70
2022/11/06 00:32:33;;;;;;;26.20;13.40;;;;;;;7.55;75.20;98876.84;5049884;28;20420;-69
2022/11/06 00:34:58;;;;;;;31.05;14.15;;;;;;;7.54;75.00;98873.31;5069670;28;20028;-69
2022/11/06 00:37:24;;;;;;;30.00;14.18;;;;;;;7.52;74.90;98867.28;5068303;28;20062;-69
2022/11/06 00:39:49;;;;;;;26.27;12.50;;;;;;;7.51;74.84;98873.84;5068227;28;20105;-69
2022/11/06 00:42:15;;;;;;;27.40;12.77;;;;;;;7.52;74.91;98875.47;5068167;28;20035;-70
2022/11/06 00:44:40;;;;;;;24.15;12.27;;;;;;;7.50;74.72;98890.50;5069019;28;20544;-69
2022/11/06 00:47:05;;;;;;;25.63;12.00;;;;;;;7.48;74.68;98884.47;5068436;28;20545;-69
2022/11/06 00:49:31;;;;;;;26.20;12.80;;;;;;;7.48;74.85;98888.00;5067002;28;20024;-69
2022/11/06 00:51:56;;;;;;;26.15;12.82;;;;;;;7.48;74.96;98889.94;5067445;28;20357;-69
2022/11/06 00:54:21;;;;;;;22.02;11.52;;;;;;;7.49;75.14;98886.91;5068728;28;20024;-69
2022/11/06 00:56:47;;;;;;;26.38;12.02;;;;;;;7.51;75.27;98887.47;5066686;28;20039;-69
2022/11/06 00:59:13;;;;;;;19.77;10.75;;;;;;;7.54;75.29;98883.41;5067620;28;20025;-69
2022/11/06 01:01:43;;;;;;;23.17;10.85;;;;;;;7.56;75.35;98884.78;5068700;28;20020;-69
2022/11/06 01:04:18;;;;;;;20.45;10.90;;;;;;;7.56;75.42;98879.31;5068005;28;20029;-68
2022/11/06 01:06:48;;;;;;;21.42;10.82;;;;;;;7.57;75.05;98877.41;5067490;28;20036;-69
2022/11/06 01:09:15;;;;;;;;;;;;;;;7.58;74.98;98881.75;5067693;28;20555;-69
2022/11/06 01:11:44;;;;;;;22.77;11.38;;;;;;;7.57;75.20;98883.69;5069118;28;20031;-70
2022/11/06 01:14:11;;;;;;;22.20;12.18;;;;;;;7.54;74.69;98877.94;5067199;28;20040;-69
2022/11/06 01:16:37;;;;;;;24.33;12.20;;;;;;;7.52;74.95;98883.66;5065795;28;20047;-69
2022/11/06 01:19:03;;;;;;;24.75;11.75;;;;;;;7.47;74.75;98885.56;5067613;28;20464;-69
2022/11/06 01:21:32;;;;;;;20.70;11.95;;;;;;;7.43;74.89;98879.78;5049554;28;20020;-70
2022/11/06 01:24:00;;;;;;;24.23;11.80;;;;;;;7.42;74.55;98875.41;5066266;28;20059;-69
2022/11/06 01:26:27;;;;;;;24.08;12.02;;;;;;;7.42;75.07;98878.97;5068006;28;20067;-69
2022/11/06 01:28:53;;;;;;;21.73;12.02;;;;;;;7.42;75.13;98876.25;5066805;28;20112;-69
2022/11/06 01:31:23;;;;;;;20.33;11.10;;;;;;;7.43;75.00;98875.16;5066458;28;20059;-69
2022/11/06 01:33:49;;;;;;;21.48;11.80;;;;;;;7.46;75.51;98876.53;5068867;28;20024;-69
2022/11/06 01:36:17;;;;;;;20.70;11.60;;;;;;;7.46;75.02;98884.72;5065631;28;20032;-69
2022/11/06 01:38:44;;;;;;;23.02;11.18;;;;;;;7.45;74.75;98891.25;5061538;28;20489;-69
2022/11/06 01:41:19;;;;;;;25.13;12.32;;;;;;;7.45;74.95;98877.63;5068022;28;20036;-70
2022/11/06 01:43:49;;;;;;;23.20;12.10;;;;;;;7.42;75.18;98873.53;5065373;28;20427;-70
2022/11/06 01:46:17;;;;;;;22.42;12.45;;;;;;;7.38;74.95;98877.88;5066810;28;20438;-69
2022/11/06 01:48:54;;;;;;;28.05;14.23;;;;;;;7.35;75.37;98878.38;5064487;28;20052;-69
2022/11/06 01:51:22;;;;;;;30.73;14.35;;;;;;;7.31;74.88;98874.53;5060188;28;20085;-69
2022/11/06 01:53:48;;;;;;;25.65;12.65;;;;;;;7.27;74.71;98881.63;5066149;28;20024;-69
2022/11/06 01:56:14;;;;;;;25.60;12.07;;;;;;;7.23;74.86;98883.22;5069012;28;20384;-69
2022/11/06 01:58:42;;;;;;;23.95;11.98;;;;;;;7.21;75.03;98883.50;5063164;28;20052;-69
2022/11/06 02:01:08;;;;;;;20.75;11.75;;;;;;;7.20;74.96;98884.59;5066100;28;20433;-68
2022/11/06 02:03:35;;;;;;;22.27;11.68;;;;;;;7.18;75.03;98884.03;5061627;28;20090;-68
2022/11/06 02:06:01;;;;;;;23.42;11.75;;;;;;;7.17;75.03;98878.81;5064536;28;20108;-70
2022/11/06 02:08:27;;;;;;;23.10;11.27;;;;;;;7.13;75.07;98881.25;5068330;28;20483;-68
2022/11/06 02:10:52;;;;;;;24.33;11.90;;;;;;;7.09;74.93;98889.16;5067360;28;20107;-69
2022/11/06 02:13:30;;;;;;;21.67;11.02;;;;;;;7.04;75.05;98889.13;5069352;28;20028;-67
2022/11/06 02:16:01;;;;;;;22.17;11.35;;;;;;;6.96;75.11;98893.13;5070303;28;20042;-68
2022/11/06 02:18:38;;;;;;;26.45;12.48;;;;;;;6.89;75.14;98894.47;5051060;28;20472;-69
2022/11/06 02:21:30;;;;;;;23.80;11.77;;;;;;;6.76;75.20;98896.53;5045854;28;20040;-68
2022/11/06 02:24:24;;;;;;;25.65;12.77;;;;;;;6.69;75.17;98898.69;5066480;28;20051;-68
2022/11/06 02:27:18;;;;;;;23.10;11.50;;;;;;;6.62;75.17;98893.44;5066358;28;20048;-69
2022/11/06 02:29:58;;;;;;;24.67;12.27;;;;;;;6.55;75.00;98893.66;5068489;28;20039;-68
2022/11/06 02:32:56;;;;;;;22.80;12.18;;;;;;;6.49;75.20;98897.41;5068556;28;20043;-69
2022/11/06 02:35:51;;;;;;;26.58;14.88;;;;;;;6.44;75.15;98885.66;5065687;28;20051;-69
2022/11/06 02:38:24;;;;;;;31.50;14.32;;;;;;;6.39;74.98;98889.97;5035067;28;20093;-68
2022/11/06 02:40:57;;;;;;;26.67;13.63;;;;;;;6.36;75.12;98892.38;5067636;28;20024;-68
2022/11/06 02:43:31;;;;;;;26.75;14.50;;;;;;;6.34;75.50;98889.91;5068900;28;20028;-68
2022/11/06 02:46:02;;;;;;;25.05;13.23;;;;;;;6.32;75.32;98900.25;5069921;28;20032;-68
2022/11/06 02:48:34;;;;;;;25.23;13.18;;;;;;;6.29;75.48;98899.94;5050207;28;20037;-68
2022/11/06 02:51:04;;;;;;;24.58;12.52;;;;;;;6.27;75.13;98902.91;5069271;28;20464;-68
2022/11/06 02:53:31;;;;;;;22.15;13.27;;;;;;;6.24;75.50;98903.44;5069224;28;20035;-68
2022/11/06 02:56:11;;;;;;;26.63;13.15;;;;;;;6.18;75.45;98899.84;5070545;28;20036;-69
2022/11/06 02:58:57;;;;;;;27.70;13.55;;;;;;;6.16;75.36;98896.53;5070195;28;20021;-68
2022/11/06 03:01:25;;;;;;;22.10;12.48;;;;;;;6.13;75.31;98902.50;5066399;28;20484;-68
2022/11/06 03:03:56;;;;;;;22.83;12.27;;;;;;;6.11;75.51;98900.03;5066018;28;20432;-68
2022/11/06 03:06:26;;;;;;;25.83;12.43;;;;;;;6.12;75.42;98903.56;5069851;28;20028;-69
2022/11/06 03:09:05;;;;;;;23.23;12.63;;;;;;;6.06;75.16;98900.00;5071700;28;20020;-69
2022/11/06 03:11:34;;;;;;;24.17;13.27;;;;;;;6.07;75.54;98898.91;5052859;28;20032;-69
2022/11/06 03:14:18;;;;;;;23.25;12.52;;;;;;;6.02;75.34;98903.47;5073619;28;20024;-69
2022/11/06 03:16:55;;;;;;;24.88;13.30;;;;;;;5.96;75.14;98908.81;5070484;28;20034;-68
2022/11/06 03:19:26;;;;;;;23.75;12.38;;;;;;;5.94;75.17;98910.97;5071708;28;20098;-69
2022/11/06 03:22:20;;;;;;;24.52;13.05;;;;;;;5.89;75.34;98908.22;5071640;28;20367;-68
2022/11/06 03:25:07;;;;;;;22.70;12.32;;;;;;;5.88;75.54;98912.00;5070941;28;20109;-69
2022/11/06 03:27:40;;;;;;;24.65;12.55;;;;;;;5.89;75.45;98912.81;5089993;28;20040;-69
2022/11/06 03:30:08;;;;;;;22.50;12.50;;;;;;;5.89;75.37;98924.53;5089682;28;20031;-68
2022/11/06 03:32:36;;;;;;;23.90;12.30;;;;;;;5.88;75.27;98931.06;5092132;28;20043;-69
2022/11/06 03:35:08;;;;;;;23.27;12.50;;;;;;;5.87;75.20;98926.69;5092897;28;20020;-68
2022/11/06 03:37:43;;;;;;;22.27;12.88;;;;;;;5.86;75.58;98927.78;5092181;28;20468;-68
2022/11/06 03:40:15;;;;;;;21.90;13.40;;;;;;;5.84;75.26;98929.94;5091638;28;20020;-68
2022/11/06 03:42:43;;;;;;;23.23;12.30;;;;;;;5.84;75.51;98932.66;5091238;28;20078;-69
2022/11/06 03:45:14;;;;;;;24.27;13.00;;;;;;;5.86;75.71;98929.66;5090459;28;20110;-68
2022/11/06 03:47:44;;;;;;;22.27;13.07;;;;;;;5.88;75.56;98935.66;5088782;28;20396;-69
2022/11/06 03:50:14;;;;;;;22.17;12.52;;;;;;;5.85;75.24;98934.28;5091357;28;20448;-68
2022/11/06 03:52:43;;;;;;;26.15;13.35;;;;;;;5.85;75.24;98938.91;5093293;28;20042;-68
2022/11/06 03:55:15;;;;;;;23.30;12.50;;;;;;;5.84;75.44;98942.69;5074828;28;20070;-68
2022/11/06 03:57:57;;;;;;;21.50;11.00;;;;;;;5.81;75.34;98936.69;5092958;28;20065;-69
2022/11/06 04:00:23;;;;;;;17.73;11.27;;;;;;;5.86;75.88;98943.25;5093573;28;20161;-69
2022/11/06 04:03:03;;;;;;;18.45;11.32;;;;;;;5.87;75.67;98944.91;5093214;28;20480;-69
2022/11/06 04:05:33;;;;;;;21.05;11.65;;;;;;;5.82;75.53;98951.13;5092996;28;20043;-69
2022/11/06 04:16:17;;;;;;;19.67;9.90;;;;;;;5.86;75.70;98946.00;5092471;28;20145;-69
2022/11/06 04:18:42;;;;;;;19.15;11.02;;;;;;;5.89;75.94;98949.03;5093179;28;20093;-69
2022/11/06 04:21:21;;;;;;;17.83;10.27;;;;;;;5.88;75.97;98944.69;5093354;28;20028;-69
2022/11/06 04:27:28;;;;;;;15.68;9.60;;;;;;;5.88;75.78;98941.13;5076500;28;20089;-69
2022/11/06 04:30:11;;;;;;;14.88;9.07;;;;;;;5.84;75.71;98943.53;5070896;28;20369;-68
2022/11/06 04:32:42;;;;;;;15.60;9.60;;;;;;;5.85;75.78;98947.91;5071778;28;20021;-68
2022/11/06 04:35:22;;;;;;;16.60;9.88;;;;;;;5.84;75.84;98938.09;5071551;28;20794;-69
2022/11/06 04:38:26;;;;;;;16.63;10.52;;;;;;;5.79;75.90;98943.47;5071832;28;20028;-68
2022/11/06 04:40:54;;;;;;;16.45;9.25;;;;;;;5.78;75.93;98939.09;5001256;28;20057;-68
2022/11/06 04:43:30;;;;;;;15.15;8.57;;;;;;;5.79;76.20;98941.56;5054786;28;20068;-68
2022/11/06 04:45:59;;;;;;;15.05;9.52;;;;;;;5.80;75.69;98935.03;5071815;28;20534;-68
2022/11/06 04:48:26;;;;;;;13.48;8.75;;;;;;;5.81;76.05;98933.97;5069675;28;20093;-69
2022/11/06 04:50:58;;;;;;;16.90;9.48;;;;;;;5.81;76.02;98938.59;5053754;28;20035;-68
2022/11/06 04:53:25;;;;;;;15.40;9.65;;;;;;;5.81;75.83;98936.69;5069382;28;20377;-69
2022/11/06 04:55:53;;;;;;;14.75;9.30;;;;;;;5.82;76.05;98937.53;5071662;28;20048;-68
2022/11/06 04:58:19;;;;;;;16.67;10.02;;;;;;;5.84;75.90;98926.34;5071581;28;20099;-68
2022/11/06 05:00:47;;;;;;;17.85;11.57;;;;;;;5.87;75.95;98932.13;5071606;28;20437;-69
2022/11/06 05:03:14;;;;;;;17.67;10.98;;;;;;;5.87;76.26;98934.03;5053118;28;20021;-69
2022/11/06 05:05:39;;;;;;;18.52;10.95;;;;;;;5.88;76.16;98941.13;5069057;28;20039;-69
2022/11/06 05:08:05;;;;;;;19.45;10.63;;;;;;;5.87;75.79;98936.75;5069917;28;20040;-69
2022/11/06 05:10:30;;;;;;;14.45;9.07;;;;;;;5.85;76.28;98936.19;5068247;28;20060;-68
2022/11/06 05:12:56;;;;;;;14.70;9.63;;;;;;;5.86;76.11;98941.38;5069251;28;20027;-68
2022/11/06 05:15:21;;;;;;;14.55;9.70;;;;;;;5.85;76.04;98939.75;5070907;28;20028;-68
2022/11/06 05:17:46;;;;;;;16.13;10.25;;;;;;;5.86;75.98;98941.38;5053354;28;20039;-68
2022/11/06 05:20:12;;;;;;;16.90;10.68;;;;;;;5.86;75.89;98941.38;5072006;28;20032;-68
2022/11/06 05:22:56;;;;;;;15.50;9.68;;;;;;;5.87;75.84;98943.03;5072117;28;20024;-69
2022/11/06 05:25:23;;;;;;;14.43;9.45;;;;;;;5.85;75.66;98933.44;5071167;28;20086;-69
2022/11/06 05:27:48;;;;;;;15.77;10.30;;;;;;;5.84;76.19;98938.09;5071146;28;20067;-70
2022/11/06 05:30:13;;;;;;;18.13;10.20;;;;;;;5.82;76.02;98949.22;5071639;28;20544;-68
2022/11/06 05:32:39;;;;;;;15.43;9.05;;;;;;;5.77;75.46;98943.69;5069371;28;20028;-68
2022/11/06 05:35:04;;;;;;;17.88;9.68;;;;;;;5.74;75.71;98951.56;5069084;28;20028;-68
2022/11/06 05:37:30;;;;;;;13.68;8.70;;;;;;;5.75;76.21;98955.94;5065227;28;20052;-69
2022/11/06 05:39:55;;;;;;;14.40;9.27;;;;;;;5.75;75.73;98958.66;5071230;28;20210;-69
2022/11/06 05:42:20;;;;;;;15.10;8.82;;;;;;;5.76;75.73;98947.50;5068651;28;20033;-69
2022/11/06 05:44:46;;;;;;;12.55;7.68;;;;;;;5.74;76.18;98951.56;5070466;28;20061;-69
2022/11/06 05:47:11;;;;;;;13.20;8.10;;;;;;;5.72;76.08;98956.44;5070992;28;20525;-69
2022/11/06 05:49:36;;;;;;;14.23;8.60;;;;;;;5.72;75.81;98956.44;5068380;28;20036;-69
2022/11/06 05:52:02;;;;;;;12.35;7.50;;;;;;;5.72;75.94;98951.00;5066815;28;20027;-69
2022/11/06 05:54:27;;;;;;;12.30;7.25;;;;;;;5.72;76.16;98951.00;5070165;28;20047;-69
2022/11/06 05:56:53;;;;;;;11.60;7.88;;;;;;;5.73;76.26;98963.53;5047601;28;20464;-69
2022/11/06 05:59:18;;;;;;;12.60;7.43;;;;;;;5.72;75.91;98959.97;5069276;28;20094;-69
2022/11/06 06:01:43;;;;;;;11.85;7.35;;;;;;;5.73;75.87;98958.06;5070597;28;20056;-68
2022/11/06 06:04:09;;;;;;;13.82;7.97;;;;;;;5.73;76.39;98961.59;5070679;28;20457;-68
2022/11/06 06:06:35;;;;;;;12.18;6.97;;;;;;;5.73;76.17;98958.88;5070393;28;20063;-69
2022/11/06 06:09:00;;;;;;;14.25;7.80;;;;;;;5.73;76.00;98963.53;5070309;28;20039;-69
2022/11/06 06:11:26;;;;;;;13.95;8.00;;;;;;;5.72;76.26;98970.03;5063741;28;20028;-69
2022/11/06 06:13:51;;;;;;;15.50;9.75;;;;;;;5.70;75.68;98975.75;5067400;28;20121;-69
2022/11/06 06:16:16;;;;;;;16.13;8.68;;;;;;;5.71;76.09;98974.63;5069075;28;20115;-68
2022/11/06 06:18:42;;;;;;;18.00;10.02;;;;;;;5.74;76.50;98971.41;5069632;28;20028;-68
2022/11/06 06:21:07;;;;;;;25.20;13.52;;;;;;;5.74;76.13;98968.69;5065880;28;20404;-68
2022/11/06 06:23:32;;;;;;;23.77;12.38;;;;;;;5.74;76.24;98982.31;5069004;28;20032;-69
2022/11/06 06:25:58;;;;;;;21.67;11.30;;;;;;;5.76;76.08;98987.50;5069799;28;20400;-68
2022/11/06 06:28:24;;;;;;;22.23;11.80;;;;;;;5.78;76.27;98988.09;5069259;28;20123;-68
2022/11/06 06:30:49;;;;;;;19.42;11.70;;;;;;;5.79;76.33;98978.84;5069748;28;20028;-68
2022/11/06 06:33:14;;;;;;;19.45;11.57;;;;;;;5.77;75.70;98978.28;5069734;28;20040;-68
2022/11/06 06:35:40;;;;;;;22.60;12.48;;;;;;;5.77;76.33;98981.81;5067971;28;20040;-69
2022/11/06 06:38:05;;;;;;;20.65;11.80;;;;;;;5.79;76.50;98987.00;5070275;28;20036;-69
2022/11/06 06:40:31;;;;;;;23.92;13.60;;;;;;;5.78;76.55;98985.38;5069016;28;20542;-69
2022/11/06 06:42:57;;;;;;;22.85;13.82;;;;;;;5.78;76.30;98988.91;5070058;28;20075;-69
2022/11/06 06:45:23;;;;;;;22.75;13.75;;;;;;;5.78;76.08;98990.81;5072980;28;20120;-69
2022/11/06 06:47:49;;;;;;;22.85;12.95;;;;;;;5.80;76.25;98994.91;5055295;28;20471;-69
2022/11/06 06:50:14;;;;;;;20.27;11.63;;;;;;;5.80;76.16;98992.19;5072767;28;20056;-69
2022/11/06 06:52:39;;;;;;;18.55;11.02;;;;;;;5.81;76.18;98999.28;5070652;28;20016;-69
2022/11/06 06:55:05;;;;;;;19.60;11.85;;;;;;;5.85;76.23;98993.34;5073885;28;20531;-69
2022/11/06 06:57:31;;;;;;;23.45;13.77;;;;;;;5.87;76.27;98994.75;5074535;28;20033;-69
2022/11/06 06:59:56;;;;;;;25.15;16.10;;;;;;;5.91;76.40;98995.88;5073999;28;20475;-69
2022/11/06 07:02:21;;;;;;;22.45;14.40;;;;;;;5.94;76.28;98994.56;5052706;28;20029;-69
2022/11/06 07:04:47;;;;;;;22.20;12.57;;;;;;;6.00;76.39;99003.59;5074943;28;20417;-68
2022/11/06 07:07:13;;;;;;;22.17;13.55;;;;;;;6.03;76.46;98986.78;5072140;28;20029;-69
2022/11/06 07:09:39;;;;;;;23.73;13.55;;;;;;;6.05;76.14;98999.09;5073494;28;20032;-69
2022/11/06 07:12:04;;;;;;;24.42;14.05;;;;;;;6.02;76.43;98999.59;5054377;28;20031;-69
2022/11/06 07:14:30;;;;;;;24.65;13.88;;;;;;;6.00;76.41;98990.00;5070282;28;20200;-69
2022/11/06 07:16:55;;;;;;;25.05;14.18;;;;;;;6.01;76.41;98987.06;5063696;28;20063;-69
2022/11/06 07:19:20;;;;;;;22.58;14.05;;;;;;;6.04;76.49;98992.00;5063845;28;20452;-68
2022/11/06 07:21:46;;;;;;;21.30;12.77;;;;;;;6.11;76.56;98991.81;5065506;28;20029;-68
2022/11/06 07:24:11;;;;;;;21.30;11.63;;;;;;;6.16;76.30;98989.16;5059629;28;20031;-69
2022/11/06 07:26:36;;;;;;;24.95;13.98;;;;;;;6.18;76.56;98981.53;5065302;28;20060;-69
2022/11/06 07:29:02;;;;;;;20.80;11.65;;;;;;;6.23;76.68;98988.94;5054966;28;20021;-69
2022/11/06 07:31:29;;;;;;;21.33;11.68;;;;;;;6.29;76.64;98984.41;5059337;28;20025;-69
2022/11/06 07:33:55;;;;;;;28.98;14.63;;;;;;;6.35;76.44;98989.63;5057939;28;20043;-69
2022/11/06 07:36:20;;;;;;;30.08;16.13;;;;;;;6.38;77.23;98991.00;5058302;28;20473;-69
2022/11/06 07:38:45;;;;;;;30.02;17.35;;;;;;;6.41;76.29;98990.50;5074283;28;20024;-69
2022/11/06 07:41:13;;;;;;;27.98;15.80;;;;;;;6.43;76.64;98987.53;5074199;28;20028;-69
2022/11/06 07:43:39;;;;;;;27.67;14.90;;;;;;;6.44;76.51;98987.28;5074386;28;20039;-69
2022/11/06 07:46:07;;;;;;;29.70;15.73;;;;;;;6.47;76.45;98994.94;5074387;28;20040;-69
2022/11/06 07:48:32;;;;;;;30.05;17.02;;;;;;;6.51;76.46;98995.25;5071195;28;20381;-69
2022/11/06 07:51:01;;;;;;;31.23;16.27;;;;;;;6.51;76.63;98987.91;5074014;28;20054;-69
2022/11/06 07:53:27;;;;;;;31.90;17.30;;;;;;;6.55;76.49;98994.47;5073046;28;20037;-69
2022/11/06 07:55:55;;;;;;;30.00;16.40;;;;;;;6.60;76.32;98992.91;5073574;28;20025;-69
2022/11/06 07:58:21;;;;;;;29.33;16.13;;;;;;;6.62;76.54;98997.00;5073599;28;20025;-69
2022/11/06 08:00:53;;;;;;;31.23;16.83;;;;;;;6.66;76.54;98997.31;5055386;28;20503;-69
2022/11/06 08:03:19;;;;;;;31.10;16.63;;;;;;;6.72;76.64;98998.19;5054741;28;20028;-69
2022/11/06 08:05:45;;;;;;;31.42;16.88;;;;;;;6.73;76.56;98997.91;5073989;28;20020;-69
2022/11/06 08:08:10;;;;;;;30.38;16.63;;;;;;;6.77;76.40;98998.25;5069741;28;20043;-69
2022/11/06 08:10:39;;;;;;;29.77;15.68;;;;;;;6.79;76.60;99004.25;5070027;28;20056;-68
2022/11/06 08:13:11;;;;;;;36.20;18.92;;;;;;;6.79;76.60;98998.81;5065483;28;20039;-68
2022/11/06 08:15:38;;;;;;;38.13;19.38;;;;;;;6.80;76.56;99001.25;5069675;28;20052;-69
2022/11/06 08:18:04;;;;;;;35.38;18.48;;;;;;;6.81;76.47;99000.19;5071476;28;20042;-69
2022/11/06 08:20:30;;;;;;;33.15;17.08;;;;;;;6.80;76.31;99001.25;5069093;28;20499;-70
2022/11/06 08:22:59;;;;;;;29.50;15.88;;;;;;;6.79;76.28;98998.81;5072810;28;20028;-69
2022/11/06 08:25:26;;;;;;;27.70;15.50;;;;;;;6.80;76.55;98987.63;5072846;28;20111;-69
2022/11/06 08:27:57;;;;;;;29.42;16.70;;;;;;;6.88;76.46;98991.81;5036590;28;20029;-69
2022/11/06 08:30:22;;;;;;;31.83;17.33;;;;;;;6.93;76.41;98991.03;5067524;28;20500;-69
2022/11/06 08:32:48;;;;;;;35.35;16.92;;;;;;;6.97;76.60;98995.69;5071735;28;20053;-69
2022/11/06 08:35:13;;;;;;;35.95;18.35;;;;;;;6.98;76.39;98991.88;5071674;28;20039;-69
2022/11/06 08:37:39;;;;;;;31.05;16.10;;;;;;;7.02;76.56;98988.63;5072908;28;20443;-69
2022/11/06 08:40:04;;;;;;;31.48;16.25;;;;;;;7.00;76.36;98981.53;5072844;28;20039;-70
2022/11/06 08:42:30;;;;;;;30.25;15.57;;;;;;;7.02;76.04;98984.03;5069473;28;20078;-69
2022/11/06 08:44:55;;;;;;;35.78;18.52;;;;;;;7.07;76.05;98981.34;5071947;28;20032;-69
2022/11/06 08:47:21;;;;;;;34.65;18.45;;;;;;;7.12;76.49;98984.09;5070768;28;20115;-70
2022/11/06 08:49:46;;;;;;;33.88;18.50;;;;;;;7.14;76.24;98979.19;5072355;28;20039;-69
2022/11/06 08:52:11;;;;;;;31.58;17.13;;;;;;;7.20;76.53;98980.06;5071278;28;20036;-69
2022/11/06 08:54:37;;;;;;;33.33;17.45;;;;;;;7.27;76.00;98979.84;5071153;28;20391;-69
2022/11/06 08:57:02;;;;;;;33.03;17.85;;;;;;;7.35;76.50;98983.97;5070931;28;20032;-69
2022/11/06 08:59:28;;;;;;;37.63;18.88;;;;;;;7.41;76.77;98980.19;5069014;28;20036;-69
2022/11/06 09:01:56;;;;;;;35.28;18.80;;;;;;;7.44;76.56;98982.41;5071869;28;20385;-69
2022/11/06 09:04:21;;;;;;;44.20;21.65;;;;;;;7.50;76.47;98983.28;5063344;28;20033;-69
2022/11/06 09:06:47;;;;;;;39.20;19.92;;;;;;;7.58;76.67;98991.78;5070191;28;20032;-69
2022/11/06 09:09:12;;;;;;;31.08;16.48;;;;;;;7.64;76.40;98984.44;5072689;28;20020;-69
2022/11/06 09:11:37;;;;;;;23.88;13.68;;;;;;;7.64;76.09;98984.44;5052951;28;20115;-70
2022/11/06 09:14:03;;;;;;;26.63;13.80;;;;;;;7.64;76.13;98981.72;5070332;28;20021;-70
2022/11/06 09:16:28;;;;;;;25.65;13.80;;;;;;;7.63;76.42;98980.06;5069631;28;20033;-69
2022/11/06 09:18:56;;;;;;;26.60;14.05;;;;;;;7.66;76.30;98982.28;5071137;28;20024;-70
2022/11/06 09:21:22;;;;;;;25.02;12.15;;;;;;;7.64;76.44;98986.38;5070159;28;20469;-69
2022/11/06 09:23:48;;;;;;;30.02;15.45;;;;;;;7.67;76.24;98985.84;5068289;28;20033;-69
2022/11/06 09:26:14;;;;;;;28.50;13.48;;;;;;;7.73;76.58;98990.25;5067537;28;20044;-69
2022/11/06 09:28:40;;;;;;;29.20;14.85;;;;;;;7.80;76.21;98984.53;5067024;28;20056;-69
2022/11/06 09:31:05;;;;;;;26.00;13.15;;;;;;;7.89;76.05;98989.22;5069019;28;20467;-70
2022/11/06 09:33:31;;;;;;;29.67;14.75;;;;;;;7.96;76.72;98982.72;5053598;28;20021;-69
2022/11/06 09:35:56;;;;;;;27.75;14.73;;;;;;;8.04;76.85;98972.09;5070533;28;20456;-69
2022/11/06 09:38:21;;;;;;;31.73;16.55;;;;;;;8.11;76.25;98971.03;5070530;28;20024;-69
2022/11/06 09:40:53;;;;;;;36.55;18.55;;;;;;;8.13;76.27;98961.50;5070909;28;20437;-69
2022/11/06 09:43:34;;;;;;;39.17;20.45;;;;;;;8.12;76.41;98962.56;5066913;28;20024;-68
2022/11/06 09:46:08;;;;;;;41.55;21.30;;;;;;;8.13;76.45;98958.75;5070855;28;20036;-70
2022/11/06 09:48:42;;;;;;;38.28;18.20;;;;;;;8.10;76.09;98961.19;5053497;28;20070;-69
2022/11/06 09:51:26;;;;;;;28.63;15.43;;;;;;;8.11;76.22;98963.66;5051006;28;20039;-70
2022/11/06 09:53:59;;;;;;;31.45;16.70;;;;;;;8.13;76.45;98957.91;5069486;28;20107;-68
2022/11/06 09:56:31;;;;;;;33.58;17.20;;;;;;;8.16;76.00;98951.91;5051919;28;20154;-70
2022/11/06 09:58:58;;;;;;;25.52;14.13;;;;;;;8.20;76.44;98953.03;5070852;28;20017;-70
2022/11/06 10:01:37;;;;;;;27.00;16.77;;;;;;;8.21;76.03;98954.66;5070142;28;20102;-69
2022/11/06 10:04:04;;;;;;;31.13;17.90;;;;;;;8.26;76.11;98951.13;5052309;28;20059;-67
2022/11/06 10:06:29;;;;;;;32.03;18.73;;;;;;;8.32;76.14;98952.78;5070293;28;20488;-68
2022/11/06 10:09:00;;;;;;;36.28;19.67;;;;;;;8.36;75.90;98951.16;5069169;28;20082;-68
2022/11/06 10:11:47;;;;;;;30.77;17.00;;;;;;;8.40;75.71;98948.69;5069886;28;20035;-68
2022/11/06 10:14:30;;;;;;;34.63;17.65;;;;;;;8.43;76.00;98943.53;5066015;28;20059;-69
2022/11/06 10:17:03;;;;;;;32.03;16.88;;;;;;;8.47;75.39;98952.00;5067519;28;20028;-70
2022/11/06 10:20:08;;;;;;;29.55;14.95;;;;;;;8.48;75.61;98939.97;5068544;28;20047;-70
2022/11/06 10:22:48;;;;;;;29.13;15.18;;;;;;;8.52;76.00;98946.56;5038959;28;20037;-70
2022/11/06 10:25:26;;;;;;;31.15;16.25;;;;;;;8.56;75.81;98949.59;5049753;28;20036;-68
2022/11/06 10:28:17;;;;;;;32.03;18.25;;;;;;;8.60;75.22;98948.78;5066876;28;20059;-68
2022/11/06 10:31:07;;;;;;;32.58;16.60;;;;;;;8.61;75.24;98939.50;5069262;28;20111;-69
2022/11/06 10:33:41;;;;;;;30.77;16.55;;;;;;;8.61;75.73;98939.50;5069098;28;20032;-69
2022/11/06 10:36:21;;;;;;;30.58;16.73;;;;;;;8.71;75.53;98940.59;5069679;28;20107;-69
2022/11/06 10:38:49;;;;;;;;;;;;;;;8.77;75.26;98937.59;5069535;28;20461;-68
2022/11/06 10:41:20;;;;;;;27.55;14.38;;;;;;;8.76;74.97;98933.22;5068866;28;19916;-68
2022/11/06 10:43:52;;;;;;;26.63;16.25;;;;;;;8.71;74.99;98935.13;5069942;28;20031;-68
2022/11/06 10:46:21;;;;;;;36.25;19.38;;;;;;;8.67;74.86;98923.91;5067383;28;20074;-69
2022/11/06 10:48:56;;;;;;;27.70;14.27;;;;;;;8.61;75.44;98924.97;5066856;28;20020;-68
2022/11/06 10:51:31;;;;;;;35.38;19.05;;;;;;;8.55;74.89;98924.16;5066587;28;20103;-69
2022/11/06 10:54:29;;;;;;;43.78;23.15;;;;;;;8.51;74.68;98914.06;5049140;28;20028;-68
2022/11/06 10:57:19;;;;;;;33.67;18.25;;;;;;;8.52;74.93;98915.69;5069161;28;20029;-68
2022/11/06 10:59:45;;;;;;;;;;;;;;;8.57;74.86;98902.84;5069864;28;20511;-68
2022/11/06 11:02:23;;;;;;;27.63;15.13;;;;;;;8.66;75.31;98900.38;5069473;28;19916;-68
2022/11/06 11:04:48;;;;;;;27.98;16.23;;;;;;;8.75;75.89;98903.41;5066751;28;20056;-68
2022/11/06 11:07:15;;;;;;;28.88;14.75;;;;;;;8.86;75.58;98893.28;5069329;28;20078;-69
2022/11/06 11:09:40;;;;;;;22.83;13.77;;;;;;;8.94;75.45;98884.53;5068764;28;20082;-69
2022/11/06 11:12:20;;;;;;;25.42;13.98;;;;;;;9.01;75.26;98881.50;5069622;28;20028;-68
2022/11/06 11:15:23;;;;;;;24.50;13.48;;;;;;;9.12;75.25;98876.84;5068731;28;21515;-68
2022/11/06 11:18:07;;;;;;;26.40;13.73;;;;;;;9.20;75.37;98874.34;5053617;28;20119;-68
2022/11/06 11:20:34;;;;;;;26.45;13.95;;;;;;;9.22;75.28;98871.34;5069405;28;20591;-69
2022/11/06 11:23:20;;;;;;;27.40;13.88;;;;;;;9.23;75.07;98868.31;5069251;28;20031;-68
2022/11/06 11:25:51;;;;;;;21.90;11.70;;;;;;;9.28;75.30;98874.88;5056020;28;20380;-69
2022/11/06 11:28:22;;;;;;;44.67;17.85;;;;;;;9.26;75.14;98866.97;5088392;28;20047;-69
2022/11/06 11:30:59;;;;;;;31.80;14.57;;;;;;;9.27;74.87;98870.50;5091644;28;20046;-69
2022/11/06 11:33:25;;;;;;;29.50;14.55;;;;;;;9.28;74.70;98863.94;5092642;28;20084;-68
2022/11/06 11:35:52;;;;;;;24.65;14.07;;;;;;;9.35;75.45;98857.09;5093248;28;20055;-68
2022/11/06 11:38:20;;;;;;;27.70;13.68;;;;;;;9.41;74.55;98848.84;5091577;28;20028;-69
2022/11/06 11:40:47;;;;;;;38.33;20.17;;;;;;;9.46;75.11;98852.38;5092533;28;20376;-68
2022/11/06 11:43:18;;;;;;;40.58;21.38;;;;;;;9.48;74.46;98846.63;5092827;28;20032;-68
2022/11/06 11:45:59;;;;;;;39.75;20.55;;;;;;;9.51;75.28;98846.91;5092972;28;20020;-68
2022/11/06 11:48:25;;;;;;;39.75;19.75;;;;;;;9.51;74.86;98838.69;5092762;28;20027;-68
2022/11/06 11:50:50;;;;;;;56.55;26.98;;;;;;;9.52;74.22;98847.72;5092370;28;20031;-68
2022/11/06 11:53:21;;;;;;;45.67;22.48;;;;;;;9.52;74.72;98840.31;5092317;28;20036;-68